Webb, Mississippi
Current Conditions -  °F | °C
As of 6:55 PM on Wednesday 17 Dec 2014 (Local Time) from KCKM Reporting Station
Broken Clouds Broken Clouds  
Wind Chill: 35°   Ceiling: 10000
Heat Index: 41°   Visibility: 10mi
Dew Point: 36°   Wind: 9mph
Humidity: 81%   Direction: 20°NNE
Pressure: 30.26"   Gusts: NA
Location:  33.95°N, 90.34°W
Report Text: KCKM 180055Z AUTO 02008KT 10SM BKN100 05/02 A3026 RMK AO1
Loading
Personal Weather Stations






























Interactive Weather Map New forecast layout! Learn more

10-Day Weather Forecast

Advertisements
Track Severe Weather on mobile